Nearby METAR Reports

 

KAVP - Avoca/Wilkes B., Pennsylvania, USA
Distance from station: N 16mi, 25km
Updated: 03/28/2020 7:54pm
Overcast
Overcast
 Wind from ENE
Wind: ENE 6 mph , 9 km/h
Temperature: 45°F , 7°C
Wind Chill: 42°F , 6°C
Dew Point: 39°F , 4°C
Humidity: 81%
Barometer: 30.01 inHg , 1016.3 hPa
Clouds: Overcast
Visibility: 10 miles , 16 km
Cloud details: Overcast 1300 ft
2020/03/28 23:54 KAVP 282354Z 07005KT 10SM OVC013 07/04 A3001 RMK AO2 SLP163 60007 T00720044 10078 20067 53017
KMPO - Mt. Pocono, Pennsylvania, USA
Distance from station: E 20mi, 33km
Updated: 03/28/2020 7:53pm
Fog, Overcast
Fog, Overcast
 Wind from ESE
Wind: ESE 8 mph , 13 km/h
Temperature: 37°F , 3°C
Wind Chill: 31°F , -1°C
Dew Point: 37°F , 3°C
Humidity: 100%
Barometer: 30.00 inHg , 1015.9 hPa
Summary: Fog
Clouds: Overcast
Visibility: 1/4 mile , 0.4 km
Cloud details: Overcast 100 ft
2020/03/28 23:53 KMPO 282353Z AUTO 11007KT 1/4SM FG VV001 03/03 A3000 RMK AO2 RAB00E27 SLP172 P0000 60011 T00330028 10033 20028 51016 $
 
KABE - Allentown, Pennsylvania, USA
Distance from station: SSE 36mi, 58km
Updated: 03/28/2020 7:51pm
Light rain, Mist, Overcast
Light rain, Mist, Overcast
 Wind from ENE
Wind: ENE 8 mph , 13 km/h
Temperature: 46°F , 8°C
Wind Chill: 42°F , 6°C
Dew Point: 43°F , 6°C
Humidity: 87%
Barometer: 30.03 inHg , 1016.9 hPa
Summary: Light rain, Mist
Clouds: Overcast
Visibility: 2 1/2 miles , 4 km
Cloud details: Overcast 800 ft
2020/03/28 23:51 KABE 282351Z 06007KT 2 1/2SM -RA BR OVC008 08/06 A3003 RMK AO2 SFC VIS 6 CIG 005V012 SLP169 P0008 60023 T00830061 10094 20083 50012
KXLL - Allentown Queen, Pennsylvania, USA
Distance from station: SSE 41mi, 65km
Updated: 03/28/2020 7:55pm
Rain, Overcast
Rain, Overcast
 Wind from E
Wind: E 9 mph , 15 km/h
Temperature: 45°F , 7°C
Wind Chill: 40°F , 4°C
Dew Point: 45°F , 7°C
Humidity: 100%
Barometer: 30.03 inHg , 1016.9 hPa
Summary: Rain
Clouds: Overcast
Visibility: 5 miles , 8 km
Cloud details: Mostly cloudy 500 ft
Overcast 1000 ft
2020/03/28 23:55 KXLL 282355Z AUTO 08008KT 030V090 5SM RA BKN005 OVC010 07/07 A3003 RMK AO2 P0010